Latest Weather Observations for Nambour
Issued at 5:51 am EST Wednesday 2 September 2026 (issued every 10 minutes, with the page automatically refreshed every 10 minutes)
| Station Details | ID: 040988 | Name: NAMBOUR DAFF - HILLSIDE | Lat: -26.64 | Lon: 152.94 | Height: 53.24 m |
| Date/Time EST |
Temp °C |
App Temp °C |
Dew Point °C |
Rel Hum % |
Delta-T °C |
Wind | Press QNH hPa |
Press MSL hPa |
Rain since 9am mm |
||||
|---|---|---|---|---|---|---|---|---|---|---|---|---|---|
| Dir | Spd km/h |
Gust km/h |
Spd kts |
Gust kts |
|||||||||
| 02/05:30am | 11.3 | 11.6 | 11.0 | 98 | 0.2 | CALM | 0 | 0 | 0 | 0 | 1024.0 | 1023.9 | 0.0 |
| 02/05:00am | 11.3 | 11.6 | 11.0 | 98 | 0.2 | CALM | 0 | 0 | 0 | 0 | 1023.7 | 1023.6 | 0.0 |
| 02/04:30am | 12.3 | 13.0 | 12.1 | 99 | 0.1 | CALM | 0 | 0 | 0 | 0 | 1023.7 | 1023.6 | 0.0 |
| 02/04:00am | 11.8 | 12.3 | 11.5 | 98 | 0.2 | CALM | 0 | 0 | 0 | 0 | 1023.8 | 1023.7 | 0.0 |
| 02/03:30am | 11.8 | 12.3 | 11.5 | 98 | 0.2 | CALM | 0 | 0 | 0 | 0 | 1023.9 | 1023.8 | 0.0 |
| 02/03:00am | 12.1 | 12.7 | 11.8 | 98 | 0.2 | CALM | 0 | 0 | 0 | 0 | 1024.2 | 1024.1 | 0.0 |
| 02/02:30am | 12.3 | 12.9 | 12.0 | 98 | 0.2 | CALM | 0 | 0 | 0 | 0 | 1024.6 | 1024.5 | 0.0 |
| 02/02:00am | 12.5 | 13.2 | 12.2 | 98 | 0.2 | CALM | 0 | 0 | 0 | 0 | 1024.8 | 1024.7 | 0.0 |
| 02/01:30am | 11.9 | 12.3 | 11.4 | 97 | 0.3 | CALM | 0 | 0 | 0 | 0 | 1025.0 | 1024.9 | 0.0 |
| 02/01:00am | 12.1 | 12.6 | 11.6 | 97 | 0.3 | CALM | 0 | 0 | 0 | 0 | 1025.3 | 1025.2 | 0.0 |
| 02/12:30am | 12.8 | 13.6 | 12.5 | 98 | 0.2 | CALM | 0 | 0 | 0 | 0 | 1025.5 | 1025.4 | 0.0 |
| 02/12:00am | 12.3 | 12.8 | 11.7 | 96 | 0.3 | CALM | 0 | 0 | 0 | 0 | 1025.7 | 1025.6 | 0.0 |
| Date/Time EST |
Temp °C |
App Temp °C |
Dew Point °C |
Rel Hum % |
Delta-T °C |
Wind | Press QNH hPa |
Press MSL hPa |
Rain since 9am mm |
||||
|---|---|---|---|---|---|---|---|---|---|---|---|---|---|
| Dir | Spd km/h |
Gust km/h |
Spd kts |
Gust kts |
|||||||||
| 01/11:30pm | 12.3 | 12.8 | 11.7 | 96 | 0.3 | CALM | 0 | 0 | 0 | 0 | 1025.9 | 1025.8 | 0.0 |
| 01/11:00pm | 13.0 | 13.8 | 12.4 | 96 | 0.3 | CALM | 0 | 0 | 0 | 0 | 1026.0 | 1025.9 | 0.0 |
| 01/10:30pm | 13.2 | 14.0 | 12.4 | 95 | 0.4 | CALM | 0 | 0 | 0 | 0 | 1026.2 | 1026.1 | 0.0 |
| 01/10:00pm | 13.0 | 13.8 | 12.4 | 96 | 0.3 | CALM | 0 | 0 | 0 | 0 | 1026.3 | 1026.2 | 0.0 |
| 01/09:30pm | 13.3 | 14.1 | 12.4 | 94 | 0.5 | CALM | 0 | 0 | 0 | 0 | 1026.3 | 1026.2 | 0.0 |
| 01/09:00pm | 13.4 | 14.2 | 12.5 | 94 | 0.5 | CALM | 0 | 0 | 0 | 0 | 1026.5 | 1026.4 | 0.0 |
| 01/08:30pm | 13.7 | 14.5 | 12.6 | 93 | 0.6 | CALM | 0 | 0 | 0 | 0 | 1026.5 | 1026.4 | 0.0 |
| 01/08:00pm | 14.2 | 15.1 | 12.8 | 91 | 0.8 | CALM | 0 | 0 | 0 | 0 | 1026.5 | 1026.4 | 0.0 |
| 01/07:30pm | 14.5 | 15.4 | 13.0 | 91 | 0.8 | CALM | 0 | 0 | 0 | 0 | 1026.4 | 1026.3 | 0.0 |
| 01/07:00pm | 15.3 | 16.4 | 13.5 | 89 | 1.0 | CALM | 0 | 0 | 0 | 0 | 1026.1 | 1026.0 | 0.0 |
| 01/06:30pm | 16.0 | 17.0 | 13.3 | 84 | 1.5 | CALM | 0 | 0 | 0 | 0 | 1025.7 | 1025.6 | 0.0 |
| 01/06:00pm | 17.2 | 18.2 | 13.3 | 78 | 2.2 | CALM | 0 | 0 | 0 | 0 | 1025.5 | 1025.4 | 0.0 |
| 01/05:30pm | 18.7 | 19.0 | 13.3 | 71 | 3.1 | ENE | 4 | 6 | 2 | 3 | 1025.3 | 1025.2 | 0.0 |
| 01/05:00pm | 19.7 | 19.4 | 13.4 | 67 | 3.6 | E | 7 | 11 | 4 | 6 | 1025.1 | 1025.0 | 0.0 |
| 01/04:30pm | 20.0 | 19.2 | 13.9 | 68 | 3.5 | E | 11 | 15 | 6 | 8 | 1025.1 | 1025.0 | 0.0 |
| 01/04:00pm | 20.7 | 19.6 | 13.2 | 62 | 4.3 | E | 11 | 20 | 6 | 11 | 1025.2 | 1025.1 | 0.0 |
| 01/03:30pm | 21.6 | 20.7 | 12.5 | 56 | 5.2 | E | 9 | 15 | 5 | 8 | 1025.2 | 1025.1 | 0.0 |
| 01/03:00pm | 22.0 | 20.7 | 11.1 | 50 | 6.0 | ENE | 9 | 13 | 5 | 7 | 1025.3 | 1025.2 | 0.0 |
| 01/02:30pm | 22.3 | 21.2 | 10.8 | 48 | 6.4 | NE | 7 | 15 | 4 | 8 | 1025.6 | 1025.5 | 0.0 |
| 01/02:00pm | 22.2 | 20.5 | 11.3 | 50 | 6.0 | E | 11 | 17 | 6 | 9 | 1025.8 | 1025.7 | 0.0 |
| 01/01:30pm | 22.5 | 21.2 | 12.4 | 52 | 5.7 | ENE | 11 | 20 | 6 | 11 | 1026.2 | 1026.1 | 0.0 |
| 01/01:00pm | 22.1 | 20.4 | 11.2 | 50 | 6.0 | ENE | 11 | 19 | 6 | 10 | 1026.5 | 1026.4 | 0.0 |
| 01/12:30pm | 22.4 | 20.7 | 11.2 | 49 | 6.2 | ENE | 11 | 19 | 6 | 10 | 1027.1 | 1027.1 | 0.0 |
| 01/12:00pm | 22.4 | 20.7 | 12.4 | 53 | 5.7 | E | 13 | 19 | 7 | 10 | 1027.4 | 1027.4 | 0.0 |
| 01/11:30am | 22.3 | 20.9 | 13.4 | 57 | 5.1 | E | 13 | 20 | 7 | 11 | 1028.0 | 1027.9 | 0.0 |
| 01/11:00am | 20.9 | 20.5 | 13.1 | 61 | 4.4 | ESE | 7 | 11 | 4 | 6 | 1028.6 | 1028.5 | 0.0 |
| 01/10:30am | 21.5 | 21.7 | 14.2 | 63 | 4.3 | ESE | 6 | 11 | 3 | 6 | 1029.3 | 1029.2 | 0.0 |
| 01/10:00am | 20.8 | 21.0 | 14.2 | 66 | 3.8 | NE | 6 | 9 | 3 | 5 | 1029.6 | 1029.5 | 0.0 |
| 01/09:30am | 20.9 | 21.8 | 15.2 | 70 | 3.4 | SE | 4 | 9 | 2 | 5 | 1029.6 | 1029.5 | 0.0 |
| 01/09:00am | 20.0 | 20.5 | 15.0 | 73 | 2.9 | ESE | 6 | 9 | 3 | 5 | 1029.7 | 1029.6 | 2.6 |
| 01/08:30am | 19.2 | 19.7 | 15.1 | 77 | 2.4 | SE | 6 | 13 | 3 | 7 | 1029.8 | 1029.7 | 2.6 |
| 01/08:00am | 18.5 | 19.6 | 15.7 | 84 | 1.6 | SE | 4 | 7 | 2 | 4 | 1029.6 | 1029.5 | 2.6 |
| 01/07:30am | 16.0 | 17.8 | 15.5 | 97 | 0.3 | CALM | 0 | 0 | 0 | 0 | 1029.4 | 1029.3 | 2.6 |
| 01/07:00am | 15.2 | 16.8 | 14.9 | 98 | 0.2 | CALM | 0 | 0 | 0 | 0 | 1029.0 | 1028.9 | 2.6 |
| 01/06:30am | 14.1 | 15.3 | 13.8 | 98 | 0.2 | CALM | 0 | 0 | 0 | 0 | 1028.6 | 1028.5 | 2.4 |
| 01/06:00am | 13.7 | 14.7 | 13.2 | 97 | 0.3 | CALM | 0 | 0 | 0 | 0 | 1028.1 | 1028.0 | 2.4 |
| 01/05:30am | 14.3 | 15.6 | 14.0 | 98 | 0.2 | CALM | 0 | 0 | 0 | 0 | 1027.8 | 1027.7 | 2.4 |
| 01/05:00am | 14.5 | 15.8 | 14.0 | 97 | 0.3 | CALM | 0 | 0 | 0 | 0 | 1027.6 | 1027.6 | 2.4 |
| 01/04:30am | 14.5 | 15.8 | 14.0 | 97 | 0.3 | CALM | 0 | 0 | 0 | 0 | 1027.6 | 1027.6 | 2.4 |
| 01/04:00am | 15.0 | 16.1 | 14.5 | 97 | 0.3 | SW | 2 | 4 | 1 | 2 | 1027.6 | 1027.6 | 2.4 |
| 01/03:30am | 15.2 | 16.7 | 14.7 | 97 | 0.3 | CALM | 0 | 0 | 0 | 0 | 1027.5 | 1027.5 | 2.4 |
| 01/03:00am | 15.2 | 16.0 | 14.7 | 97 | 0.3 | SSW | 4 | 6 | 2 | 3 | 1027.6 | 1027.6 | 2.4 |
| 01/02:30am | 15.2 | 16.3 | 14.7 | 97 | 0.3 | SW | 2 | 4 | 1 | 2 | 1028.1 | 1028.0 | 2.4 |
| 01/02:00am | 15.2 | 16.0 | 14.7 | 97 | 0.3 | WSW | 4 | 11 | 2 | 6 | 1028.3 | 1028.2 | 2.0 |
| 01/01:30am | 14.8 | 15.8 | 14.3 | 97 | 0.3 | ESE | 2 | 4 | 1 | 2 | 1028.8 | 1028.7 | 1.8 |
| 01/01:00am | 14.6 | 15.9 | 14.1 | 97 | 0.3 | CALM | 0 | 0 | 0 | 0 | 1028.8 | 1028.7 | 1.8 |
| 01/12:30am | 14.9 | 16.3 | 14.3 | 96 | 0.3 | CALM | 0 | 0 | 0 | 0 | 1029.1 | 1029.0 | 1.8 |
| 01/12:00am | 15.7 | 17.0 | 15.2 | 97 | 0.3 | WSW | 2 | 4 | 1 | 2 | 1029.5 | 1029.4 | 1.8 |
| Date/Time EST |
Temp °C |
App Temp °C |
Dew Point °C |
Rel Hum % |
Delta-T °C |
Wind | Press QNH hPa |
Press MSL hPa |
Rain since 9am mm |
||||
|---|---|---|---|---|---|---|---|---|---|---|---|---|---|
| Dir | Spd km/h |
Gust km/h |
Spd kts |
Gust kts |
|||||||||
| 31/11:30pm | 15.8 | 17.1 | 15.2 | 96 | 0.3 | WSW | 2 | 7 | 1 | 4 | 1029.5 | 1029.4 | 0.8 |
| 31/11:00pm | 15.7 | 17.4 | 15.1 | 96 | 0.3 | CALM | 0 | 4 | 0 | 2 | 1029.6 | 1029.5 | 0.8 |
| 31/10:30pm | 15.6 | 16.0 | 14.8 | 95 | 0.5 | SW | 6 | 7 | 3 | 4 | 1029.6 | 1029.5 | 0.8 |
| 31/10:00pm | 16.0 | 16.8 | 14.7 | 92 | 0.7 | SSW | 4 | 7 | 2 | 4 | 1030.1 | 1030.0 | 0.6 |
| 31/09:30pm | 16.1 | 17.5 | 14.3 | 89 | 1.0 | CALM | 0 | 0 | 0 | 0 | 1030.1 | 1030.0 | 0.0 |
| 31/09:00pm | 16.3 | 17.6 | 14.1 | 87 | 1.2 | CALM | 0 | 2 | 0 | 1 | 1030.0 | 1029.9 | 0.0 |
| 31/08:30pm | 16.2 | 17.5 | 14.0 | 87 | 1.2 | CALM | 0 | 0 | 0 | 0 | 1029.9 | 1029.8 | 0.0 |
| 31/08:00pm | 15.9 | 17.2 | 14.1 | 89 | 1.0 | CALM | 0 | 0 | 0 | 0 | 1029.7 | 1029.6 | 0.0 |
| 31/07:30pm | 16.2 | 17.5 | 14.0 | 87 | 1.2 | CALM | 0 | 0 | 0 | 0 | 1029.4 | 1029.3 | 0.0 |
| 31/07:00pm | 16.2 | 17.4 | 13.7 | 85 | 1.4 | CALM | 0 | 0 | 0 | 0 | 1029.2 | 1029.1 | 0.0 |
| 31/06:30pm | 16.4 | 17.6 | 13.7 | 84 | 1.5 | CALM | 0 | 0 | 0 | 0 | 1029.0 | 1028.9 | 0.0 |
| 31/06:00pm | 17.0 | 18.2 | 13.9 | 82 | 1.8 | CALM | 0 | 0 | 0 | 0 | 1029.0 | 1028.9 | 0.0 |
| 31/05:30pm | 17.6 | 18.4 | 13.7 | 78 | 2.2 | WSW | 2 | 4 | 1 | 2 | 1028.8 | 1028.7 | 0.0 |
| 31/05:00pm | 18.3 | 18.9 | 14.2 | 77 | 2.3 | SE | 4 | 9 | 2 | 5 | 1028.7 | 1028.6 | 0.0 |
| 31/04:30pm | 18.4 | 18.6 | 14.7 | 79 | 2.1 | ESE | 7 | 13 | 4 | 7 | 1028.4 | 1028.3 | 0.0 |
| 31/04:00pm | 19.3 | 19.0 | 14.3 | 73 | 2.9 | ESE | 9 | 17 | 5 | 9 | 1028.0 | 1027.9 | 0.0 |
| 31/03:30pm | 19.9 | 19.5 | 13.1 | 65 | 3.9 | ESE | 7 | 19 | 4 | 10 | 1027.6 | 1027.6 | 0.0 |
| 31/03:00pm | 21.3 | 21.3 | 14.2 | 64 | 4.1 | ESE | 7 | 17 | 4 | 9 | 1027.4 | 1027.4 | 0.0 |
| 31/02:30pm | 22.2 | 21.7 | 12.2 | 53 | 5.7 | SE | 6 | 11 | 3 | 6 | 1027.3 | 1027.3 | 0.0 |
| 31/02:00pm | 22.9 | 22.4 | 11.9 | 50 | 6.2 | ESE | 6 | 11 | 3 | 6 | 1027.5 | 1027.5 | 0.0 |
| 31/01:30pm | 22.4 | 21.5 | 11.5 | 50 | 6.1 | E | 7 | 17 | 4 | 9 | 1027.8 | 1027.7 | 0.0 |
| 31/01:00pm | 22.4 | 21.3 | 11.8 | 51 | 5.9 | ENE | 9 | 15 | 5 | 8 | 1028.1 | 1028.0 | 0.0 |
| 31/12:30pm | 21.3 | 20.6 | 11.3 | 53 | 5.5 | SE | 6 | 11 | 3 | 6 | 1028.5 | 1028.4 | 0.0 |
| 31/12:00pm | 22.2 | 20.5 | 11.3 | 50 | 6.0 | E | 11 | 19 | 6 | 10 | 1028.6 | 1028.5 | 0.0 |
| 31/11:30am | 21.4 | 21.4 | 12.5 | 57 | 5.0 | E | 4 | 9 | 2 | 5 | 1029.1 | 1029.0 | 0.0 |
| 31/11:00am | 21.7 | 21.1 | 12.3 | 55 | 5.3 | ESE | 7 | 13 | 4 | 7 | 1029.5 | 1029.4 | 0.0 |
| 31/10:30am | 20.4 | 19.4 | 12.4 | 60 | 4.5 | ESE | 9 | 19 | 5 | 10 | 1029.8 | 1029.7 | 0.0 |
| 31/10:00am | 20.9 | 21.0 | 13.8 | 64 | 4.1 | ESE | 6 | 13 | 3 | 7 | 1029.8 | 1029.7 | 0.0 |
| 31/09:30am | 19.4 | 18.9 | 12.7 | 65 | 3.8 | SE | 7 | 13 | 4 | 7 | 1030.0 | 1029.9 | 0.0 |
| 31/09:00am | 19.1 | 18.8 | 12.8 | 67 | 3.5 | SE | 6 | 15 | 3 | 8 | 1030.0 | 1029.9 | 0.6 |
| 31/08:30am | 18.3 | 17.9 | 12.5 | 69 | 3.2 | SE | 6 | 9 | 3 | 5 | 1029.7 | 1029.6 | 0.6 |
| 31/08:00am | 17.6 | 17.6 | 12.5 | 72 | 2.8 | E | 4 | 7 | 2 | 4 | 1029.4 | 1029.3 | 0.6 |
| 31/07:30am | 15.4 | 16.4 | 13.2 | 87 | 1.2 | CALM | 0 | 0 | 0 | 0 | 1029.4 | 1029.3 | 0.6 |
| 31/07:00am | 14.3 | 15.2 | 13.0 | 92 | 0.7 | CALM | 0 | 0 | 0 | 0 | 1029.2 | 1029.1 | 0.6 |
| 31/06:30am | 13.7 | 14.4 | 12.3 | 91 | 0.8 | CALM | 0 | 0 | 0 | 0 | 1028.9 | 1028.8 | 0.6 |
| 31/06:00am | 13.4 | 14.0 | 11.8 | 90 | 0.9 | CALM | 0 | 0 | 0 | 0 | 1028.5 | 1028.4 | 0.6 |
| 31/05:30am | 13.7 | 13.8 | 11.4 | 86 | 1.2 | SE | 2 | 4 | 1 | 2 | 1028.2 | 1028.1 | 0.6 |
| 31/05:00am | 13.6 | 14.0 | 11.1 | 85 | 1.3 | CALM | 0 | 2 | 0 | 1 | 1027.8 | 1027.7 | 0.6 |
| 31/04:30am | 13.5 | 13.9 | 11.4 | 87 | 1.1 | CALM | 0 | 0 | 0 | 0 | 1027.9 | 1027.8 | 0.6 |
| 31/04:00am | 13.4 | 13.9 | 11.5 | 88 | 1.0 | CALM | 0 | 0 | 0 | 0 | 1027.8 | 1027.7 | 0.6 |
| 31/03:30am | 13.6 | 14.1 | 11.7 | 88 | 1.0 | CALM | 0 | 4 | 0 | 2 | 1027.9 | 1027.8 | 0.6 |
| 31/03:00am | 14.1 | 14.8 | 12.3 | 89 | 1.0 | CALM | 0 | 6 | 0 | 3 | 1028.0 | 1027.9 | 0.6 |
| 31/02:30am | 14.1 | 14.9 | 12.7 | 91 | 0.8 | CALM | 0 | 0 | 0 | 0 | 1028.1 | 1028.0 | 0.6 |
| 31/02:00am | 14.8 | 15.8 | 13.2 | 90 | 0.9 | CALM | 0 | 4 | 0 | 2 | 1028.2 | 1028.1 | 0.6 |
| 31/01:30am | 14.9 | 15.8 | 12.9 | 88 | 1.1 | CALM | 0 | 2 | 0 | 1 | 1028.4 | 1028.3 | 0.6 |
| 31/01:00am | 14.9 | 15.3 | 12.6 | 86 | 1.3 | WSW | 2 | 6 | 1 | 3 | 1028.6 | 1028.5 | 0.6 |
| 31/12:30am | 15.1 | 15.7 | 13.0 | 87 | 1.2 | WSW | 2 | 4 | 1 | 2 | 1028.8 | 1028.7 | 0.6 |
| 31/12:00am | 15.4 | 16.3 | 12.9 | 85 | 1.4 | CALM | 0 | 2 | 0 | 1 | 1029.0 | 1028.9 | 0.6 |
| Date/Time EST |
Temp °C |
App Temp °C |
Dew Point °C |
Rel Hum % |
Delta-T °C |
Wind | Press QNH hPa |
Press MSL hPa |
Rain since 9am mm |
||||
|---|---|---|---|---|---|---|---|---|---|---|---|---|---|
| Dir | Spd km/h |
Gust km/h |
Spd kts |
Gust kts |
|||||||||
| 30/11:30pm | 15.8 | 16.8 | 13.1 | 84 | 1.5 | CALM | 0 | 0 | 0 | 0 | 1029.0 | 1028.9 | 0.6 |
| 30/11:00pm | 16.0 | 17.2 | 13.7 | 86 | 1.3 | CALM | 0 | 0 | 0 | 0 | 1029.1 | 1029.0 | 0.6 |
| 30/10:30pm | 16.0 | 17.0 | 13.3 | 84 | 1.5 | CALM | 0 | 2 | 0 | 1 | 1029.2 | 1029.1 | 0.6 |
| 30/10:00pm | 15.9 | 16.9 | 13.2 | 84 | 1.5 | CALM | 0 | 4 | 0 | 2 | 1029.3 | 1029.2 | 0.6 |
| 30/09:30pm | 15.9 | 16.0 | 12.8 | 82 | 1.7 | SW | 4 | 9 | 2 | 5 | 1029.2 | 1029.1 | 0.6 |
| 30/09:00pm | 15.5 | 16.4 | 13.0 | 85 | 1.4 | CALM | 0 | 4 | 0 | 2 | 1029.1 | 1029.0 | 0.6 |
| 30/08:30pm | 15.3 | 16.2 | 13.0 | 86 | 1.3 | CALM | 0 | 6 | 0 | 3 | 1029.0 | 1028.9 | 0.6 |
| 30/08:00pm | 15.7 | 16.4 | 13.4 | 86 | 1.3 | WSW | 2 | 6 | 1 | 3 | 1029.0 | 1028.9 | 0.6 |
| 30/07:30pm | 15.7 | 16.0 | 13.5 | 87 | 1.2 | SW | 4 | 6 | 2 | 3 | 1028.8 | 1028.7 | 0.6 |
| 30/07:00pm | 15.8 | 16.8 | 13.3 | 85 | 1.4 | CALM | 0 | 0 | 0 | 0 | 1028.6 | 1028.5 | 0.6 |
| 30/06:30pm | 16.6 | 17.7 | 13.5 | 82 | 1.7 | CALM | 0 | 0 | 0 | 0 | 1028.3 | 1028.2 | 0.6 |
| 30/06:00pm | 17.0 | 18.2 | 13.7 | 81 | 1.9 | CALM | 0 | 2 | 0 | 1 | 1028.0 | 1027.9 | 0.6 |
| 30/05:30pm | 17.9 | 19.1 | 13.8 | 77 | 2.3 | CALM | 0 | 2 | 0 | 1 | 1027.5 | 1027.5 | 0.6 |
| 30/05:00pm | 18.9 | 18.7 | 13.5 | 71 | 3.1 | SE | 7 | 13 | 4 | 7 | 1027.1 | 1027.1 | 0.6 |
| 30/04:30pm | 19.8 | 20.7 | 14.0 | 69 | 3.4 | SSE | 2 | 9 | 1 | 5 | 1026.9 | 1026.9 | 0.6 |
| 30/04:00pm | 19.8 | 19.8 | 13.7 | 68 | 3.5 | ESE | 6 | 11 | 3 | 6 | 1026.9 | 1026.9 | 0.6 |
| 30/03:30pm | 19.9 | 20.1 | 14.3 | 70 | 3.3 | SSE | 6 | 11 | 3 | 6 | 1027.0 | 1027.0 | 0.6 |
| 30/03:00pm | 19.6 | 19.4 | 13.5 | 68 | 3.5 | ESE | 7 | 13 | 4 | 7 | 1027.0 | 1027.0 | 0.6 |
| 30/02:30pm | 19.8 | 18.8 | 13.5 | 67 | 3.6 | ESE | 11 | 20 | 6 | 11 | 1027.0 | 1027.0 | 0.6 |
| 30/02:00pm | 20.2 | 19.7 | 13.9 | 67 | 3.6 | ESE | 9 | 20 | 5 | 11 | 1026.9 | 1026.9 | 0.6 |
| 30/01:30pm | 21.4 | 21.6 | 14.3 | 64 | 4.2 | SSE | 6 | 13 | 3 | 7 | 1027.0 | 1027.0 | 0.6 |
| 30/01:00pm | 19.9 | 20.1 | 14.3 | 70 | 3.2 | ESE | 6 | 13 | 3 | 7 | 1027.4 | 1027.4 | 0.6 |
| 30/12:30pm | 19.6 | 19.9 | 14.4 | 72 | 3.0 | SE | 6 | 13 | 3 | 7 | 1028.0 | 1027.9 | 0.6 |
| 30/12:00pm | 20.8 | 21.5 | 16.0 | 74 | 2.9 | SE | 7 | 20 | 4 | 11 | 1028.3 | 1028.2 | 0.6 |
| 30/11:30am | 19.7 | 19.9 | 14.7 | 73 | 2.9 | SE | 7 | 17 | 4 | 9 | 1028.6 | 1028.5 | 0.2 |
| 30/11:00am | 19.5 | 20.3 | 14.7 | 74 | 2.8 | ESE | 4 | 11 | 2 | 6 | 1028.9 | 1028.8 | 0.2 |
| 30/10:30am | 18.8 | 19.5 | 14.5 | 76 | 2.5 | WSW | 4 | 9 | 2 | 5 | 1029.1 | 1029.0 | 0.2 |
| 30/10:00am | 19.9 | 21.1 | 16.0 | 78 | 2.3 | SE | 4 | 9 | 2 | 5 | 1029.2 | 1029.1 | 0.2 |
| 30/09:30am | 18.4 | 19.2 | 15.8 | 85 | 1.5 | SW | 6 | 15 | 3 | 8 | 1029.2 | 1029.1 | 0.2 |
| 30/09:00am | 16.2 | 17.3 | 14.7 | 91 | 0.9 | SSE | 2 | 6 | 1 | 3 | 1029.6 | 1029.5 | 1.0 |
| 30/08:30am | 16.1 | 16.5 | 13.6 | 85 | 1.4 | ESE | 4 | 9 | 2 | 5 | 1029.4 | 1029.3 | 0.0 |
| 30/08:00am | 16.9 | 17.1 | 13.2 | 79 | 2.1 | ENE | 4 | 13 | 2 | 7 | 1029.1 | 1029.0 | 0.0 |
| 30/07:30am | 16.8 | 17.1 | 12.1 | 74 | 2.6 | WSW | 2 | 6 | 1 | 3 | 1028.7 | 1028.6 | 0.0 |
| 30/07:00am | 16.5 | 16.3 | 11.9 | 74 | 2.5 | W | 4 | 9 | 2 | 5 | 1028.3 | 1028.2 | 0.0 |
| 30/06:30am | 15.5 | 15.6 | 11.5 | 77 | 2.2 | W | 2 | 6 | 1 | 3 | 1027.9 | 1027.8 | 0.0 |
| 30/06:00am | 15.7 | 15.4 | 11.5 | 76 | 2.3 | WSW | 4 | 11 | 2 | 6 | 1027.5 | 1027.5 | 0.0 |
Latest Capital City Observations: Canberra | Sydney | Melbourne | Brisbane | Adelaide | Perth | Hobart | Darwin
Other formats
Comma delimited format used in spreadsheet applications
http://www.bom.gov.au/fwo/IDQ60901/IDQ60901.95572.axf
JavaScript Object Notation format (JSON) in row-major order
http://www.bom.gov.au/fwo/IDQ60901/IDQ60901.95572.json
Data quality
Most of these data are generated automatically and are frequently updated. Quality checks on data are not normally performed. It is possible for incorrect values to appear. Refer to information at About Latest Weather Observations and please check the disclaimer before using these data.
